Alyeska Resort
Max's Hourly Weather Roundup
ALYESKA_MAX 5/26/2015
Click Here for Graph

        DATE  TIME   Air  Wind  Wind  Wind  BATT   Rel
                    Temp   Spd   Dir  Gust  Volt  Hum%
                      F   MPH   AVG   MPH   AVG   AVG

   5/26/2015 09:00    39     2   101     5 13.59    98
   5/26/2015 08:00    40     2   228     5 13.61    95
   5/26/2015 07:00    40     0   197     2 13.14    90
   5/26/2015 06:00    38     1   166     2 12.82    94
   5/26/2015 05:00    38     2   186     5 12.82    98
   5/26/2015 04:00    38     3           5 12.84    98
   5/26/2015 03:00    38     3           4 12.86    98
   5/26/2015 02:00    38     3           4 12.89    96
   5/26/2015 01:00    39     3    38     7 12.92    91
   5/25/2015 24:00    39     4    53     9 12.97    89
   5/25/2015 23:00    40     4    43    10 13.09    89
   5/25/2015 22:00    41     5    88    10 13.67    84
   5/25/2015 21:00    41     8    77    16 13.97    80
   5/25/2015 20:00    41    12    60    20 13.94    80
   5/25/2015 19:00    44    10    88    17 13.90    71
   5/25/2015 18:00    43    11    65    22 13.90    79
   5/25/2015 17:00    46     4   137    14 13.88    76
   5/25/2015 16:00    46     4   120    11 13.88    80
   5/25/2015 15:00    41     5    94    13 13.89    95
   5/25/2015 14:00    42     4    88     9 13.84    98
   5/25/2015 13:00    43     5   139    11 13.77    97
   5/25/2015 12:00    42     4   162    11 13.64    99
   5/25/2015 11:00    41     6   126    13 13.63    98
   5/25/2015 10:00    40     5   130    15 13.60    97


Click Here for Graph